sensor_id;sensor_type;location;lat;lon;timestamp;temperature;humidity
80220;DHT22;70247;37.958;23.722;2023-07-31T00:02:14;28.90;42.60
80220;DHT22;70247;37.958;23.722;2023-07-31T00:04:40;28.90;42.80
80220;DHT22;70247;37.958;23.722;2023-07-31T00:07:05;28.90;44.40
80220;DHT22;70247;37.958;23.722;2023-07-31T00:09:32;28.90;45.30
80220;DHT22;70247;37.958;23.722;2023-07-31T00:11:58;28.80;45.70
80220;DHT22;70247;37.958;23.722;2023-07-31T00:14:23;28.80;45.70
80220;DHT22;70247;37.958;23.722;2023-07-31T00:16:49;28.80;44.70
80220;DHT22;70247;37.958;23.722;2023-07-31T00:19:14;28.70;44.00
80220;DHT22;70247;37.958;23.722;2023-07-31T00:21:40;28.70;43.10
80220;DHT22;70247;37.958;23.722;2023-07-31T00:24:06;28.70;41.90
80220;DHT22;70247;37.958;23.722;2023-07-31T00:26:31;28.60;41.00
80220;DHT22;70247;37.958;23.722;2023-07-31T00:28:57;28.60;39.10
80220;DHT22;70247;37.958;23.722;2023-07-31T00:31:22;28.60;38.00
80220;DHT22;70247;37.958;23.722;2023-07-31T00:33:48;28.60;37.60
80220;DHT22;70247;37.958;23.722;2023-07-31T00:36:14;28.70;36.10
80220;DHT22;70247;37.958;23.722;2023-07-31T00:38:39;28.70;36.90
80220;DHT22;70247;37.958;23.722;2023-07-31T00:41:05;28.60;35.50
80220;DHT22;70247;37.958;23.722;2023-07-31T00:43:30;28.70;34.40
80220;DHT22;70247;37.958;23.722;2023-07-31T00:45:56;28.70;33.30
80220;DHT22;70247;37.958;23.722;2023-07-31T00:48:21;28.60;32.30
80220;DHT22;70247;37.958;23.722;2023-07-31T00:50:47;28.70;33.20
80220;DHT22;70247;37.958;23.722;2023-07-31T00:53:13;28.60;34.40
80220;DHT22;70247;37.958;23.722;2023-07-31T00:55:39;28.60;33.50
80220;DHT22;70247;37.958;23.722;2023-07-31T00:58:05;28.70;34.90
80220;DHT22;70247;37.958;23.722;2023-07-31T01:00:30;28.70;34.90
80220;DHT22;70247;37.958;23.722;2023-07-31T01:02:56;28.70;34.20
80220;DHT22;70247;37.958;23.722;2023-07-31T01:08:28;28.60;33.80
80220;DHT22;70247;37.958;23.722;2023-07-31T01:10:56;28.60;33.00
80220;DHT22;70247;37.958;23.722;2023-07-31T01:13:25;28.60;34.20
80220;DHT22;70247;37.958;23.722;2023-07-31T01:15:50;28.60;33.30
80220;DHT22;70247;37.958;23.722;2023-07-31T01:18:16;28.60;35.60
80220;DHT22;70247;37.958;23.722;2023-07-31T01:20:42;28.70;37.80
80220;DHT22;70247;37.958;23.722;2023-07-31T01:28:19;28.80;37.20
80220;DHT22;70247;37.958;23.722;2023-07-31T01:30:47;28.70;36.50
80220;DHT22;70247;37.958;23.722;2023-07-31T01:33:13;28.60;36.50
80220;DHT22;70247;37.958;23.722;2023-07-31T01:35:39;28.40;36.50
80220;DHT22;70247;37.958;23.722;2023-07-31T01:38:05;28.30;34.80
80220;DHT22;70247;37.958;23.722;2023-07-31T01:40:31;28.20;34.90
80220;DHT22;70247;37.958;23.722;2023-07-31T01:42:57;28.20;34.60
80220;DHT22;70247;37.958;23.722;2023-07-31T01:45:22;28.20;33.40
80220;DHT22;70247;37.958;23.722;2023-07-31T01:47:48;28.10;33.20
80220;DHT22;70247;37.958;23.722;2023-07-31T01:50:13;28.10;34.00
80220;DHT22;70247;37.958;23.722;2023-07-31T01:52:39;28.20;34.70
80220;DHT22;70247;37.958;23.722;2023-07-31T01:55:04;28.20;36.30
80220;DHT22;70247;37.958;23.722;2023-07-31T01:57:30;28.30;35.60
80220;DHT22;70247;37.958;23.722;2023-07-31T01:59:55;28.30;35.70
80220;DHT22;70247;37.958;23.722;2023-07-31T02:02:21;28.30;35.20
80220;DHT22;70247;37.958;23.722;2023-07-31T02:04:48;28.30;34.40
80220;DHT22;70247;37.958;23.722;2023-07-31T02:07:14;28.30;36.50
80220;DHT22;70247;37.958;23.722;2023-07-31T02:09:39;28.30;34.70
80220;DHT22;70247;37.958;23.722;2023-07-31T02:12:05;28.20;32.80
80220;DHT22;70247;37.958;23.722;2023-07-31T02:14:31;28.20;32.90
80220;DHT22;70247;37.958;23.722;2023-07-31T02:16:56;28.20;32.30
80220;DHT22;70247;37.958;23.722;2023-07-31T02:19:22;28.20;33.70
80220;DHT22;70247;37.958;23.722;2023-07-31T02:21:48;28.30;35.70
80220;DHT22;70247;37.958;23.722;2023-07-31T02:24:13;28.30;33.60
80220;DHT22;70247;37.958;23.722;2023-07-31T02:26:39;28.30;35.60
80220;DHT22;70247;37.958;23.722;2023-07-31T02:29:04;28.30;33.50
80220;DHT22;70247;37.958;23.722;2023-07-31T02:31:30;28.30;34.30
80220;DHT22;70247;37.958;23.722;2023-07-31T02:33:55;28.20;35.90
80220;DHT22;70247;37.958;23.722;2023-07-31T02:36:21;28.20;34.50
80220;DHT22;70247;37.958;23.722;2023-07-31T02:38:47;28.20;34.50
80220;DHT22;70247;37.958;23.722;2023-07-31T02:41:12;28.20;34.20
80220;DHT22;70247;37.958;23.722;2023-07-31T02:43:38;28.10;33.30
80220;DHT22;70247;37.958;23.722;2023-07-31T02:46:03;28.10;34.20
80220;DHT22;70247;37.958;23.722;2023-07-31T02:48:29;28.10;36.70
80220;DHT22;70247;37.958;23.722;2023-07-31T02:50:54;28.10;35.50
80220;DHT22;70247;37.958;23.722;2023-07-31T02:53:20;28.10;35.10
80220;DHT22;70247;37.958;23.722;2023-07-31T02:55:46;28.10;35.80
80220;DHT22;70247;37.958;23.722;2023-07-31T02:58:11;28.10;35.90
80220;DHT22;70247;37.958;23.722;2023-07-31T03:00:41;28.10;35.80
80220;DHT22;70247;37.958;23.722;2023-07-31T03:03:07;28.10;36.40
80220;DHT22;70247;37.958;23.722;2023-07-31T03:05:32;28.10;36.30
80220;DHT22;70247;37.958;23.722;2023-07-31T03:07:58;28.10;36.40
80220;DHT22;70247;37.958;23.722;2023-07-31T03:10:23;28.00;36.80
80220;DHT22;70247;37.958;23.722;2023-07-31T03:12:49;28.10;35.80
80220;DHT22;70247;37.958;23.722;2023-07-31T03:15:14;28.10;35.60
80220;DHT22;70247;37.958;23.722;2023-07-31T03:17:40;28.10;35.80
80220;DHT22;70247;37.958;23.722;2023-07-31T03:20:06;28.10;36.40
80220;DHT22;70247;37.958;23.722;2023-07-31T03:22:31;28.00;36.80
80220;DHT22;70247;37.958;23.722;2023-07-31T03:24:57;28.00;37.70
80220;DHT22;70247;37.958;23.722;2023-07-31T03:27:23;28.00;37.50
80220;DHT22;70247;37.958;23.722;2023-07-31T03:29:48;28.00;37.50
80220;DHT22;70247;37.958;23.722;2023-07-31T03:32:16;28.00;37.20
80220;DHT22;70247;37.958;23.722;2023-07-31T03:34:42;28.00;36.10
80220;DHT22;70247;37.958;23.722;2023-07-31T03:37:07;28.00;36.50
80220;DHT22;70247;37.958;23.722;2023-07-31T03:39:34;28.00;35.80
80220;DHT22;70247;37.958;23.722;2023-07-31T03:42:00;28.00;36.90
80220;DHT22;70247;37.958;23.722;2023-07-31T03:44:26;27.90;36.80
80220;DHT22;70247;37.958;23.722;2023-07-31T03:46:51;27.90;37.50
80220;DHT22;70247;37.958;23.722;2023-07-31T03:49:17;27.90;36.80
80220;DHT22;70247;37.958;23.722;2023-07-31T03:51:42;28.00;36.80
80220;DHT22;70247;37.958;23.722;2023-07-31T03:54:08;27.90;36.50
80220;DHT22;70247;37.958;23.722;2023-07-31T03:56:34;27.90;37.40
80220;DHT22;70247;37.958;23.722;2023-07-31T03:58:59;28.00;36.80
80220;DHT22;70247;37.958;23.722;2023-07-31T04:01:25;28.00;37.50
80220;DHT22;70247;37.958;23.722;2023-07-31T04:03:51;28.00;37.60
80220;DHT22;70247;37.958;23.722;2023-07-31T04:06:17;28.00;38.90
80220;DHT22;70247;37.958;23.722;2023-07-31T04:08:43;28.00;37.60
80220;DHT22;70247;37.958;23.722;2023-07-31T04:11:10;28.00;38.20
80220;DHT22;70247;37.958;23.722;2023-07-31T04:13:35;28.00;38.90
80220;DHT22;70247;37.958;23.722;2023-07-31T04:16:01;28.00;39.50
80220;DHT22;70247;37.958;23.722;2023-07-31T04:18:26;28.00;39.50
80220;DHT22;70247;37.958;23.722;2023-07-31T04:20:52;28.10;40.80
80220;DHT22;70247;37.958;23.722;2023-07-31T04:23:18;28.10;39.40
80220;DHT22;70247;37.958;23.722;2023-07-31T04:25:43;28.10;40.10
80220;DHT22;70247;37.958;23.722;2023-07-31T04:28:09;28.10;39.80
80220;DHT22;70247;37.958;23.722;2023-07-31T04:30:34;28.00;40.30
80220;DHT22;70247;37.958;23.722;2023-07-31T04:33:00;28.10;41.70
80220;DHT22;70247;37.958;23.722;2023-07-31T04:35:25;28.10;41.30
80220;DHT22;70247;37.958;23.722;2023-07-31T04:37:51;28.10;41.70
80220;DHT22;70247;37.958;23.722;2023-07-31T04:40:16;28.10;40.90
80220;DHT22;70247;37.958;23.722;2023-07-31T04:42:42;28.10;41.80
80220;DHT22;70247;37.958;23.722;2023-07-31T04:45:08;28.10;42.30
80220;DHT22;70247;37.958;23.722;2023-07-31T04:47:34;28.10;41.10
80220;DHT22;70247;37.958;23.722;2023-07-31T04:50:01;28.10;41.40
80220;DHT22;70247;37.958;23.722;2023-07-31T04:52:27;28.20;40.50
80220;DHT22;70247;37.958;23.722;2023-07-31T04:54:52;28.20;40.20
80220;DHT22;70247;37.958;23.722;2023-07-31T04:57:18;28.20;42.00
80220;DHT22;70247;37.958;23.722;2023-07-31T04:59:43;28.30;41.30
80220;DHT22;70247;37.958;23.722;2023-07-31T05:02:11;28.40;41.90
80220;DHT22;70247;37.958;23.722;2023-07-31T05:04:37;28.30;42.40
80220;DHT22;70247;37.958;23.722;2023-07-31T05:07:03;28.30;42.50
80220;DHT22;70247;37.958;23.722;2023-07-31T05:09:28;28.30;40.70
80220;DHT22;70247;37.958;23.722;2023-07-31T05:11:54;28.40;40.80
80220;DHT22;70247;37.958;23.722;2023-07-31T05:14:19;28.40;40.30
80220;DHT22;70247;37.958;23.722;2023-07-31T05:16:45;28.40;39.60
80220;DHT22;70247;37.958;23.722;2023-07-31T05:19:11;28.40;40.30
80220;DHT22;70247;37.958;23.722;2023-07-31T05:21:36;28.50;40.30
80220;DHT22;70247;37.958;23.722;2023-07-31T05:24:02;28.60;40.00
80220;DHT22;70247;37.958;23.722;2023-07-31T05:26:28;28.60;39.50
80220;DHT22;70247;37.958;23.722;2023-07-31T05:28:53;28.60;39.10
80220;DHT22;70247;37.958;23.722;2023-07-31T05:31:19;28.70;38.60
80220;DHT22;70247;37.958;23.722;2023-07-31T05:33:46;28.70;39.30
80220;DHT22;70247;37.958;23.722;2023-07-31T05:36:11;28.70;39.50
80220;DHT22;70247;37.958;23.722;2023-07-31T05:38:37;28.70;39.00
80220;DHT22;70247;37.958;23.722;2023-07-31T05:41:02;28.80;40.00
80220;DHT22;70247;37.958;23.722;2023-07-31T05:43:28;28.80;38.90
80220;DHT22;70247;37.958;23.722;2023-07-31T05:45:53;28.80;39.20
80220;DHT22;70247;37.958;23.722;2023-07-31T05:48:19;28.90;37.20
80220;DHT22;70247;37.958;23.722;2023-07-31T05:50:45;28.90;36.50
80220;DHT22;70247;37.958;23.722;2023-07-31T05:53:11;29.00;36.80
80220;DHT22;70247;37.958;23.722;2023-07-31T05:55:36;29.00;36.70
80220;DHT22;70247;37.958;23.722;2023-07-31T05:58:02;29.10;36.20
80220;DHT22;70247;37.958;23.722;2023-07-31T06:00:27;29.20;35.00
80220;DHT22;70247;37.958;23.722;2023-07-31T06:02:53;29.20;35.50
80220;DHT22;70247;37.958;23.722;2023-07-31T06:05:19;29.30;36.00
80220;DHT22;70247;37.958;23.722;2023-07-31T06:07:44;29.30;35.90
80220;DHT22;70247;37.958;23.722;2023-07-31T06:10:10;29.40;36.00
80220;DHT22;70247;37.958;23.722;2023-07-31T06:12:35;29.40;35.70
80220;DHT22;70247;37.958;23.722;2023-07-31T06:15:02;29.40;34.40
80220;DHT22;70247;37.958;23.722;2023-07-31T06:17:28;29.50;33.90
80220;DHT22;70247;37.958;23.722;2023-07-31T06:19:54;29.50;34.50
80220;DHT22;70247;37.958;23.722;2023-07-31T06:22:20;29.70;35.00
80220;DHT22;70247;37.958;23.722;2023-07-31T06:24:46;29.70;35.60
80220;DHT22;70247;37.958;23.722;2023-07-31T06:27:11;29.70;34.20
80220;DHT22;70247;37.958;23.722;2023-07-31T06:29:37;29.80;34.40
80220;DHT22;70247;37.958;23.722;2023-07-31T06:32:02;29.80;33.60
80220;DHT22;70247;37.958;23.722;2023-07-31T06:34:28;29.80;32.50
80220;DHT22;70247;37.958;23.722;2023-07-31T06:36:54;29.80;31.90
80220;DHT22;70247;37.958;23.722;2023-07-31T06:39:20;29.90;32.50
80220;DHT22;70247;37.958;23.722;2023-07-31T06:41:46;30.10;34.10
80220;DHT22;70247;37.958;23.722;2023-07-31T06:44:11;30.20;33.30
80220;DHT22;70247;37.958;23.722;2023-07-31T06:46:37;30.20;33.80
80220;DHT22;70247;37.958;23.722;2023-07-31T06:49:03;30.20;32.40
80220;DHT22;70247;37.958;23.722;2023-07-31T06:51:28;30.30;32.30
80220;DHT22;70247;37.958;23.722;2023-07-31T06:53:57;30.40;31.30
80220;DHT22;70247;37.958;23.722;2023-07-31T06:56:22;30.40;32.00
80220;DHT22;70247;37.958;23.722;2023-07-31T06:58:48;30.50;33.80
80220;DHT22;70247;37.958;23.722;2023-07-31T07:01:13;30.60;33.60
80220;DHT22;70247;37.958;23.722;2023-07-31T07:03:39;30.70;34.60
80220;DHT22;70247;37.958;23.722;2023-07-31T07:06:05;30.80;32.50
80220;DHT22;70247;37.958;23.722;2023-07-31T07:08:30;30.90;31.90
80220;DHT22;70247;37.958;23.722;2023-07-31T07:10:56;30.70;31.70
80220;DHT22;70247;37.958;23.722;2023-07-31T07:13:22;30.90;32.70
80220;DHT22;70247;37.958;23.722;2023-07-31T07:15:48;31.00;31.00
80220;DHT22;70247;37.958;23.722;2023-07-31T07:18:14;31.20;30.70
80220;DHT22;70247;37.958;23.722;2023-07-31T07:20:40;31.20;30.40
80220;DHT22;70247;37.958;23.722;2023-07-31T07:23:05;31.40;30.70
80220;DHT22;70247;37.958;23.722;2023-07-31T07:25:31;31.30;29.70
80220;DHT22;70247;37.958;23.722;2023-07-31T07:27:56;31.30;30.10
80220;DHT22;70247;37.958;23.722;2023-07-31T07:30:22;31.40;31.00
80220;DHT22;70247;37.958;23.722;2023-07-31T07:32:50;31.40;30.20
80220;DHT22;70247;37.958;23.722;2023-07-31T07:35:15;31.50;29.70
80220;DHT22;70247;37.958;23.722;2023-07-31T07:37:41;31.60;32.00
80220;DHT22;70247;37.958;23.722;2023-07-31T07:40:07;31.60;32.20
80220;DHT22;70247;37.958;23.722;2023-07-31T07:42:32;31.70;31.10
80220;DHT22;70247;37.958;23.722;2023-07-31T07:44:58;31.60;29.00
80220;DHT22;70247;37.958;23.722;2023-07-31T07:47:24;31.70;30.50
80220;DHT22;70247;37.958;23.722;2023-07-31T07:49:49;31.80;29.90
80220;DHT22;70247;37.958;23.722;2023-07-31T07:52:15;31.80;29.50
80220;DHT22;70247;37.958;23.722;2023-07-31T07:54:40;31.90;29.40
80220;DHT22;70247;37.958;23.722;2023-07-31T07:57:06;32.10;30.30
80220;DHT22;70247;37.958;23.722;2023-07-31T07:59:32;32.00;30.70
80220;DHT22;70247;37.958;23.722;2023-07-31T08:01:57;32.10;29.20
80220;DHT22;70247;37.958;23.722;2023-07-31T08:04:23;32.20;30.10
80220;DHT22;70247;37.958;23.722;2023-07-31T08:06:48;32.20;29.00
80220;DHT22;70247;37.958;23.722;2023-07-31T08:09:14;32.30;30.20
80220;DHT22;70247;37.958;23.722;2023-07-31T08:11:40;32.40;30.60
80220;DHT22;70247;37.958;23.722;2023-07-31T08:14:05;32.50;30.50
80220;DHT22;70247;37.958;23.722;2023-07-31T08:16:31;32.50;29.80
80220;DHT22;70247;37.958;23.722;2023-07-31T08:18:57;32.70;29.30
80220;DHT22;70247;37.958;23.722;2023-07-31T08:21:22;32.60;29.30
80220;DHT22;70247;37.958;23.722;2023-07-31T08:23:48;32.70;29.70
80220;DHT22;70247;37.958;23.722;2023-07-31T08:26:17;32.80;28.50
80220;DHT22;70247;37.958;23.722;2023-07-31T08:28:43;32.90;28.80
80220;DHT22;70247;37.958;23.722;2023-07-31T08:31:08;32.90;30.10
80220;DHT22;70247;37.958;23.722;2023-07-31T08:33:34;32.90;30.00
80220;DHT22;70247;37.958;23.722;2023-07-31T08:36:00;32.80;29.20
80220;DHT22;70247;37.958;23.722;2023-07-31T08:38:26;32.80;29.70
80220;DHT22;70247;37.958;23.722;2023-07-31T08:40:52;33.10;30.30
80220;DHT22;70247;37.958;23.722;2023-07-31T08:43:19;33.00;28.40
80220;DHT22;70247;37.958;23.722;2023-07-31T08:45:45;33.30;29.40
80220;DHT22;70247;37.958;23.722;2023-07-31T08:48:12;33.50;29.80
80220;DHT22;70247;37.958;23.722;2023-07-31T08:50:38;33.60;30.10
80220;DHT22;70247;37.958;23.722;2023-07-31T08:53:04;33.70;28.90
80220;DHT22;70247;37.958;23.722;2023-07-31T08:55:29;33.80;28.00
80220;DHT22;70247;37.958;23.722;2023-07-31T08:57:56;34.10;30.20
80220;DHT22;70247;37.958;23.722;2023-07-31T09:00:22;34.20;28.20
80220;DHT22;70247;37.958;23.722;2023-07-31T09:05:17;34.30;29.20
80220;DHT22;70247;37.958;23.722;2023-07-31T09:07:45;34.60;32.60
80220;DHT22;70247;37.958;23.722;2023-07-31T09:10:12;34.90;28.30
80220;DHT22;70247;37.958;23.722;2023-07-31T09:12:38;35.20;30.10
80220;DHT22;70247;37.958;23.722;2023-07-31T09:15:03;35.70;30.00
80220;DHT22;70247;37.958;23.722;2023-07-31T09:17:33;36.00;27.60
80220;DHT22;70247;37.958;23.722;2023-07-31T09:20:17;36.40;29.50
80220;DHT22;70247;37.958;23.722;2023-07-31T09:22:43;36.80;31.50
80220;DHT22;70247;37.958;23.722;2023-07-31T09:25:16;37.20;31.10
80220;DHT22;70247;37.958;23.722;2023-07-31T09:27:49;37.60;30.20
80220;DHT22;70247;37.958;23.722;2023-07-31T09:30:15;38.20;30.80
80220;DHT22;70247;37.958;23.722;2023-07-31T09:32:40;39.10;29.30
80220;DHT22;70247;37.958;23.722;2023-07-31T09:35:22;40.60;28.50
80220;DHT22;70247;37.958;23.722;2023-07-31T09:37:55;42.10;25.90
80220;DHT22;70247;37.958;23.722;2023-07-31T09:40:31;43.70;24.90
80220;DHT22;70247;37.958;23.722;2023-07-31T09:42:57;45.20;23.90
80220;DHT22;70247;37.958;23.722;2023-07-31T09:45:24;46.00;22.50
80220;DHT22;70247;37.958;23.722;2023-07-31T09:47:49;47.20;22.00
80220;DHT22;70247;37.958;23.722;2023-07-31T09:50:15;47.80;21.20
80220;DHT22;70247;37.958;23.722;2023-07-31T09:52:43;47.90;21.80
80220;DHT22;70247;37.958;23.722;2023-07-31T09:55:09;48.70;21.60
80220;DHT22;70247;37.958;23.722;2023-07-31T09:57:42;48.90;21.10
80220;DHT22;70247;37.958;23.722;2023-07-31T10:00:11;49.30;20.40
80220;DHT22;70247;37.958;23.722;2023-07-31T10:02:37;49.20;20.60
80220;DHT22;70247;37.958;23.722;2023-07-31T10:05:03;49.90;20.50
80220;DHT22;70247;37.958;23.722;2023-07-31T10:07:30;50.40;19.50
80220;DHT22;70247;37.958;23.722;2023-07-31T10:09:57;50.30;19.70
80220;DHT22;70247;37.958;23.722;2023-07-31T10:12:25;49.20;20.70
80220;DHT22;70247;37.958;23.722;2023-07-31T10:14:51;49.80;20.10
80220;DHT22;70247;37.958;23.722;2023-07-31T10:17:19;50.00;20.80
80220;DHT22;70247;37.958;23.722;2023-07-31T10:19:45;50.50;20.30
80220;DHT22;70247;37.958;23.722;2023-07-31T10:22:11;50.30;19.60
80220;DHT22;70247;37.958;23.722;2023-07-31T10:24:37;49.80;20.00
80220;DHT22;70247;37.958;23.722;2023-07-31T10:27:02;49.40;20.60
80220;DHT22;70247;37.958;23.722;2023-07-31T10:29:29;49.50;19.60
80220;DHT22;70247;37.958;23.722;2023-07-31T10:31:56;49.00;19.20
80220;DHT22;70247;37.958;23.722;2023-07-31T10:34:22;49.20;19.50
80220;DHT22;70247;37.958;23.722;2023-07-31T10:36:48;49.20;19.10
80220;DHT22;70247;37.958;23.722;2023-07-31T10:39:33;49.20;19.00
80220;DHT22;70247;37.958;23.722;2023-07-31T10:41:59;48.60;19.30
80220;DHT22;70247;37.958;23.722;2023-07-31T10:44:24;47.80;19.40
80220;DHT22;70247;37.958;23.722;2023-07-31T10:46:54;47.00;20.40
80220;DHT22;70247;37.958;23.722;2023-07-31T10:49:23;47.10;19.70
80220;DHT22;70247;37.958;23.722;2023-07-31T10:51:48;46.30;21.20
80220;DHT22;70247;37.958;23.722;2023-07-31T10:54:15;46.20;21.10
80220;DHT22;70247;37.958;23.722;2023-07-31T10:56:44;46.20;20.90
80220;DHT22;70247;37.958;23.722;2023-07-31T10:59:10;45.00;21.30
80220;DHT22;70247;37.958;23.722;2023-07-31T11:01:53;43.80;22.10
80220;DHT22;70247;37.958;23.722;2023-07-31T11:04:23;42.40;24.20
80220;DHT22;70247;37.958;23.722;2023-07-31T11:06:59;41.20;24.50
80220;DHT22;70247;37.958;23.722;2023-07-31T11:09:31;40.40;24.80
80220;DHT22;70247;37.958;23.722;2023-07-31T11:11:58;39.80;27.50
80220;DHT22;70247;37.958;23.722;2023-07-31T11:14:24;39.20;27.30
80220;DHT22;70247;37.958;23.722;2023-07-31T11:16:50;38.90;27.30
80220;DHT22;70247;37.958;23.722;2023-07-31T11:19:26;38.60;27.40
80220;DHT22;70247;37.958;23.722;2023-07-31T11:21:52;38.70;28.10
80220;DHT22;70247;37.958;23.722;2023-07-31T11:24:18;38.50;27.80
80220;DHT22;70247;37.958;23.722;2023-07-31T11:26:53;38.40;27.70
80220;DHT22;70247;37.958;23.722;2023-07-31T11:29:19;38.00;28.70
80220;DHT22;70247;37.958;23.722;2023-07-31T11:31:45;38.10;29.50
80220;DHT22;70247;37.958;23.722;2023-07-31T11:34:12;38.20;26.70
80220;DHT22;70247;37.958;23.722;2023-07-31T11:36:37;38.40;28.10
80220;DHT22;70247;37.958;23.722;2023-07-31T11:39:07;38.60;27.60
80220;DHT22;70247;37.958;23.722;2023-07-31T11:41:33;38.30;30.30
80220;DHT22;70247;37.958;23.722;2023-07-31T11:43:59;38.20;30.10
80220;DHT22;70247;37.958;23.722;2023-07-31T11:46:25;38.10;30.00
80220;DHT22;70247;37.958;23.722;2023-07-31T11:48:50;37.60;26.50
80220;DHT22;70247;37.958;23.722;2023-07-31T11:51:16;37.20;28.90
80220;DHT22;70247;37.958;23.722;2023-07-31T11:53:49;36.90;27.30
80220;DHT22;70247;37.958;23.722;2023-07-31T11:56:16;36.80;28.20
80220;DHT22;70247;37.958;23.722;2023-07-31T11:58:42;36.40;29.00
80220;DHT22;70247;37.958;23.722;2023-07-31T12:01:09;35.90;28.10
80220;DHT22;70247;37.958;23.722;2023-07-31T12:03:34;36.00;30.00
80220;DHT22;70247;37.958;23.722;2023-07-31T12:06:00;36.10;28.50
80220;DHT22;70247;37.958;23.722;2023-07-31T12:08:26;36.00;28.20
80220;DHT22;70247;37.958;23.722;2023-07-31T12:10:52;36.10;28.70
80220;DHT22;70247;37.958;23.722;2023-07-31T12:13:22;36.30;28.60
80220;DHT22;70247;37.958;23.722;2023-07-31T12:15:47;36.00;28.90
80220;DHT22;70247;37.958;23.722;2023-07-31T12:18:14;35.30;29.40
80220;DHT22;70247;37.958;23.722;2023-07-31T12:20:41;35.40;29.80
80220;DHT22;70247;37.958;23.722;2023-07-31T12:23:07;35.60;30.40
80220;DHT22;70247;37.958;23.722;2023-07-31T12:25:33;35.70;30.30
80220;DHT22;70247;37.958;23.722;2023-07-31T12:28:05;35.90;28.70
80220;DHT22;70247;37.958;23.722;2023-07-31T12:30:33;35.70;29.30
80220;DHT22;70247;37.958;23.722;2023-07-31T12:33:03;35.70;30.30
80220;DHT22;70247;37.958;23.722;2023-07-31T12:35:36;35.80;29.50
80220;DHT22;70247;37.958;23.722;2023-07-31T12:38:02;35.90;31.50
80220;DHT22;70247;37.958;23.722;2023-07-31T12:40:27;36.10;29.40
80220;DHT22;70247;37.958;23.722;2023-07-31T12:42:53;36.00;29.10
80220;DHT22;70247;37.958;23.722;2023-07-31T12:45:19;35.80;29.60
80220;DHT22;70247;37.958;23.722;2023-07-31T12:47:46;35.70;31.30
80220;DHT22;70247;37.958;23.722;2023-07-31T12:50:11;35.60;29.80
80220;DHT22;70247;37.958;23.722;2023-07-31T12:52:37;35.50;30.90
80220;DHT22;70247;37.958;23.722;2023-07-31T12:55:03;35.50;30.30
80220;DHT22;70247;37.958;23.722;2023-07-31T12:57:30;35.30;31.30
80220;DHT22;70247;37.958;23.722;2023-07-31T12:59:55;35.30;30.00
80220;DHT22;70247;37.958;23.722;2023-07-31T13:02:21;35.00;31.30
80220;DHT22;70247;37.958;23.722;2023-07-31T13:04:47;34.90;31.10
80220;DHT22;70247;37.958;23.722;2023-07-31T13:07:12;34.60;31.40
80220;DHT22;70247;37.958;23.722;2023-07-31T13:09:38;34.60;31.70
80220;DHT22;70247;37.958;23.722;2023-07-31T13:12:03;34.40;31.80
80220;DHT22;70247;37.958;23.722;2023-07-31T13:14:29;34.30;33.00
80220;DHT22;70247;37.958;23.722;2023-07-31T13:16:55;34.30;31.90
80220;DHT22;70247;37.958;23.722;2023-07-31T13:19:20;34.20;33.20
80220;DHT22;70247;37.958;23.722;2023-07-31T13:21:46;34.20;33.30
80220;DHT22;70247;37.958;23.722;2023-07-31T13:24:12;34.30;32.10
80220;DHT22;70247;37.958;23.722;2023-07-31T13:26:37;34.30;32.90
80220;DHT22;70247;37.958;23.722;2023-07-31T13:29:03;34.20;32.10
80220;DHT22;70247;37.958;23.722;2023-07-31T13:31:28;34.20;33.00
80220;DHT22;70247;37.958;23.722;2023-07-31T13:33:54;34.10;32.70
80220;DHT22;70247;37.958;23.722;2023-07-31T13:36:20;34.00;33.60
80220;DHT22;70247;37.958;23.722;2023-07-31T13:38:45;34.00;34.00
80220;DHT22;70247;37.958;23.722;2023-07-31T13:41:11;33.90;34.10
80220;DHT22;70247;37.958;23.722;2023-07-31T13:43:36;34.00;34.90
80220;DHT22;70247;37.958;23.722;2023-07-31T13:46:02;34.10;34.00
80220;DHT22;70247;37.958;23.722;2023-07-31T13:48:33;33.90;35.20
80220;DHT22;70247;37.958;23.722;2023-07-31T13:50:59;33.80;34.30
80220;DHT22;70247;37.958;23.722;2023-07-31T13:53:25;33.50;34.40
80220;DHT22;70247;37.958;23.722;2023-07-31T13:55:50;33.40;35.10
80220;DHT22;70247;37.958;23.722;2023-07-31T13:58:16;33.10;35.30
80220;DHT22;70247;37.958;23.722;2023-07-31T14:00:42;33.20;36.00
80220;DHT22;70247;37.958;23.722;2023-07-31T14:03:08;33.20;35.50
80220;DHT22;70247;37.958;23.722;2023-07-31T14:05:33;33.30;35.10
80220;DHT22;70247;37.958;23.722;2023-07-31T14:07:59;33.40;36.00
80220;DHT22;70247;37.958;23.722;2023-07-31T14:10:25;33.40;36.10
80220;DHT22;70247;37.958;23.722;2023-07-31T14:12:50;33.50;35.60
80220;DHT22;70247;37.958;23.722;2023-07-31T14:15:16;33.70;35.70
80220;DHT22;70247;37.958;23.722;2023-07-31T14:17:41;33.80;35.20
80220;DHT22;70247;37.958;23.722;2023-07-31T14:20:07;33.80;35.50
80220;DHT22;70247;37.958;23.722;2023-07-31T14:22:33;33.90;34.50
80220;DHT22;70247;37.958;23.722;2023-07-31T14:24:59;33.70;34.00
80220;DHT22;70247;37.958;23.722;2023-07-31T14:27:25;33.60;34.80
80220;DHT22;70247;37.958;23.722;2023-07-31T14:29:50;33.40;35.00
80220;DHT22;70247;37.958;23.722;2023-07-31T14:32:16;33.50;34.50
80220;DHT22;70247;37.958;23.722;2023-07-31T14:34:42;33.40;35.70
80220;DHT22;70247;37.958;23.722;2023-07-31T14:37:07;33.50;35.40
80220;DHT22;70247;37.958;23.722;2023-07-31T14:39:33;33.60;34.40
80220;DHT22;70247;37.958;23.722;2023-07-31T14:41:58;33.60;34.20
80220;DHT22;70247;37.958;23.722;2023-07-31T14:44:24;33.40;35.70
80220;DHT22;70247;37.958;23.722;2023-07-31T14:46:49;33.30;35.30
80220;DHT22;70247;37.958;23.722;2023-07-31T14:49:15;33.20;35.10
80220;DHT22;70247;37.958;23.722;2023-07-31T14:51:40;33.20;35.00
80220;DHT22;70247;37.958;23.722;2023-07-31T14:54:06;33.20;35.00
80220;DHT22;70247;37.958;23.722;2023-07-31T14:56:32;33.20;35.10
80220;DHT22;70247;37.958;23.722;2023-07-31T14:58:57;33.30;34.90
80220;DHT22;70247;37.958;23.722;2023-07-31T15:01:23;33.10;34.60
80220;DHT22;70247;37.958;23.722;2023-07-31T15:03:49;33.30;35.00
80220;DHT22;70247;37.958;23.722;2023-07-31T15:06:14;33.40;34.10
80220;DHT22;70247;37.958;23.722;2023-07-31T15:08:40;33.50;33.40
80220;DHT22;70247;37.958;23.722;2023-07-31T15:11:07;33.70;33.40
80220;DHT22;70247;37.958;23.722;2023-07-31T15:13:33;33.90;34.00
80220;DHT22;70247;37.958;23.722;2023-07-31T15:15:59;33.70;33.90
80220;DHT22;70247;37.958;23.722;2023-07-31T15:18:24;33.70;33.60
80220;DHT22;70247;37.958;23.722;2023-07-31T15:20:50;33.80;33.70